sensor_id;sensor_type;location;lat;lon;timestamp;temperature;humidity
19862;DHT22;10093;48.148;8.542;2023-07-31T00:00:47;10.10;99.90
19862;DHT22;10093;48.148;8.542;2023-07-31T00:03:13;10.30;99.90
19862;DHT22;10093;48.148;8.542;2023-07-31T00:05:38;10.30;99.90
19862;DHT22;10093;48.148;8.542;2023-07-31T00:08:04;10.30;99.90
19862;DHT22;10093;48.148;8.542;2023-07-31T00:10:29;10.30;99.90
19862;DHT22;10093;48.148;8.542;2023-07-31T00:12:55;10.30;99.90
19862;DHT22;10093;48.148;8.542;2023-07-31T00:15:21;10.30;99.90
19862;DHT22;10093;48.148;8.542;2023-07-31T00:17:46;10.30;99.90
19862;DHT22;10093;48.148;8.542;2023-07-31T00:20:13;10.30;99.90
19862;DHT22;10093;48.148;8.542;2023-07-31T00:22:38;10.30;99.90
19862;DHT22;10093;48.148;8.542;2023-07-31T00:25:04;10.30;99.90
19862;DHT22;10093;48.148;8.542;2023-07-31T00:27:32;10.30;99.90
19862;DHT22;10093;48.148;8.542;2023-07-31T00:29:57;10.30;99.90
19862;DHT22;10093;48.148;8.542;2023-07-31T00:32:23;10.30;99.90
19862;DHT22;10093;48.148;8.542;2023-07-31T00:34:48;10.20;99.90
19862;DHT22;10093;48.148;8.542;2023-07-31T00:37:14;9.90;99.90
19862;DHT22;10093;48.148;8.542;2023-07-31T00:39:40;9.80;99.90
19862;DHT22;10093;48.148;8.542;2023-07-31T00:42:06;9.60;99.90
19862;DHT22;10093;48.148;8.542;2023-07-31T00:44:32;9.70;99.90
19862;DHT22;10093;48.148;8.542;2023-07-31T00:46:58;9.80;99.90
19862;DHT22;10093;48.148;8.542;2023-07-31T00:49:25;10.00;99.90
19862;DHT22;10093;48.148;8.542;2023-07-31T00:51:51;9.80;99.90
19862;DHT22;10093;48.148;8.542;2023-07-31T00:54:17;9.60;99.90
19862;DHT22;10093;48.148;8.542;2023-07-31T00:56:45;9.60;99.90
19862;DHT22;10093;48.148;8.542;2023-07-31T00:59:11;9.80;99.90
19862;DHT22;10093;48.148;8.542;2023-07-31T01:01:37;9.80;99.90
19862;DHT22;10093;48.148;8.542;2023-07-31T01:04:03;9.80;99.90
19862;DHT22;10093;48.148;8.542;2023-07-31T01:07:09;9.80;99.90
19862;DHT22;10093;48.148;8.542;2023-07-31T01:10:34;9.90;99.90
19862;DHT22;10093;48.148;8.542;2023-07-31T01:12:37;9.60;99.90
19862;DHT22;10093;48.148;8.542;2023-07-31T01:15:07;9.60;99.90
19862;DHT22;10093;48.148;8.542;2023-07-31T01:17:39;9.40;99.90
19862;DHT22;10093;48.148;8.542;2023-07-31T01:20:27;9.20;99.90
19862;DHT22;10093;48.148;8.542;2023-07-31T01:28:47;9.40;99.90
19862;DHT22;10093;48.148;8.542;2023-07-31T01:31:20;9.20;99.90
19862;DHT22;10093;48.148;8.542;2023-07-31T01:33:46;9.00;99.90
19862;DHT22;10093;48.148;8.542;2023-07-31T01:36:12;9.10;99.90
19862;DHT22;10093;48.148;8.542;2023-07-31T01:38:37;9.20;99.90
19862;DHT22;10093;48.148;8.542;2023-07-31T01:41:03;9.30;99.90
19862;DHT22;10093;48.148;8.542;2023-07-31T01:43:29;9.40;99.90
19862;DHT22;10093;48.148;8.542;2023-07-31T01:45:54;9.30;99.90
19862;DHT22;10093;48.148;8.542;2023-07-31T01:48:20;9.40;99.90
19862;DHT22;10093;48.148;8.542;2023-07-31T01:50:45;9.40;99.90
19862;DHT22;10093;48.148;8.542;2023-07-31T01:53:11;9.10;99.90
19862;DHT22;10093;48.148;8.542;2023-07-31T01:55:38;8.80;99.90
19862;DHT22;10093;48.148;8.542;2023-07-31T01:58:04;8.80;99.90
19862;DHT22;10093;48.148;8.542;2023-07-31T02:00:29;8.90;99.90
19862;DHT22;10093;48.148;8.542;2023-07-31T02:02:55;8.60;99.90
19862;DHT22;10093;48.148;8.542;2023-07-31T02:05:21;8.60;99.90
19862;DHT22;10093;48.148;8.542;2023-07-31T02:07:46;8.80;99.90
19862;DHT22;10093;48.148;8.542;2023-07-31T02:10:12;9.00;99.90
19862;DHT22;10093;48.148;8.542;2023-07-31T02:12:37;8.80;99.90
19862;DHT22;10093;48.148;8.542;2023-07-31T02:15:03;9.00;99.90
19862;DHT22;10093;48.148;8.542;2023-07-31T02:17:29;9.00;99.90
19862;DHT22;10093;48.148;8.542;2023-07-31T02:19:55;8.90;99.90
19862;DHT22;10093;48.148;8.542;2023-07-31T02:22:20;8.60;99.90
19862;DHT22;10093;48.148;8.542;2023-07-31T02:24:46;8.50;99.90
19862;DHT22;10093;48.148;8.542;2023-07-31T02:27:12;8.50;99.90
19862;DHT22;10093;48.148;8.542;2023-07-31T02:29:37;8.70;99.90
19862;DHT22;10093;48.148;8.542;2023-07-31T02:32:03;8.90;99.90
19862;DHT22;10093;48.148;8.542;2023-07-31T02:34:29;8.80;99.90
19862;DHT22;10093;48.148;8.542;2023-07-31T02:36:54;8.70;99.90
19862;DHT22;10093;48.148;8.542;2023-07-31T02:39:20;8.70;99.90
19862;DHT22;10093;48.148;8.542;2023-07-31T02:41:46;8.90;99.90
19862;DHT22;10093;48.148;8.542;2023-07-31T02:44:12;8.80;99.90
19862;DHT22;10093;48.148;8.542;2023-07-31T02:46:40;8.70;99.90
19862;DHT22;10093;48.148;8.542;2023-07-31T02:49:05;8.50;99.90
19862;DHT22;10093;48.148;8.542;2023-07-31T02:51:31;8.40;99.90
19862;DHT22;10093;48.148;8.542;2023-07-31T02:53:57;8.40;99.90
19862;DHT22;10093;48.148;8.542;2023-07-31T02:56:22;8.50;99.90
19862;DHT22;10093;48.148;8.542;2023-07-31T02:58:48;8.40;99.90
19862;DHT22;10093;48.148;8.542;2023-07-31T03:01:13;8.30;99.90
19862;DHT22;10093;48.148;8.542;2023-07-31T03:03:41;8.20;99.90
19862;DHT22;10093;48.148;8.542;2023-07-31T03:06:07;8.40;99.90
19862;DHT22;10093;48.148;8.542;2023-07-31T03:08:32;8.50;99.90
19862;DHT22;10093;48.148;8.542;2023-07-31T03:10:58;8.30;99.90
19862;DHT22;10093;48.148;8.542;2023-07-31T03:13:24;8.10;99.90
19862;DHT22;10093;48.148;8.542;2023-07-31T03:15:50;7.90;99.90
19862;DHT22;10093;48.148;8.542;2023-07-31T03:18:15;7.90;99.90
19862;DHT22;10093;48.148;8.542;2023-07-31T03:20:44;7.90;99.90
19862;DHT22;10093;48.148;8.542;2023-07-31T03:23:10;8.00;99.90
19862;DHT22;10093;48.148;8.542;2023-07-31T03:25:35;8.40;99.90
19862;DHT22;10093;48.148;8.542;2023-07-31T03:28:01;8.60;99.90
19862;DHT22;10093;48.148;8.542;2023-07-31T03:30:27;8.50;99.90
19862;DHT22;10093;48.148;8.542;2023-07-31T03:32:52;8.40;99.90
19862;DHT22;10093;48.148;8.542;2023-07-31T03:35:18;8.50;99.90
19862;DHT22;10093;48.148;8.542;2023-07-31T03:37:44;8.60;99.90
19862;DHT22;10093;48.148;8.542;2023-07-31T03:40:10;8.60;99.90
19862;DHT22;10093;48.148;8.542;2023-07-31T03:42:35;8.50;99.90
19862;DHT22;10093;48.148;8.542;2023-07-31T03:45:01;8.70;99.90
19862;DHT22;10093;48.148;8.542;2023-07-31T03:47:27;8.60;99.90
19862;DHT22;10093;48.148;8.542;2023-07-31T03:49:52;8.70;99.90
19862;DHT22;10093;48.148;8.542;2023-07-31T03:52:18;8.60;99.90
19862;DHT22;10093;48.148;8.542;2023-07-31T03:54:44;8.60;99.90
19862;DHT22;10093;48.148;8.542;2023-07-31T03:57:12;8.50;99.90
19862;DHT22;10093;48.148;8.542;2023-07-31T03:59:38;8.50;99.90
19862;DHT22;10093;48.148;8.542;2023-07-31T04:02:06;8.60;99.90
19862;DHT22;10093;48.148;8.542;2023-07-31T04:04:32;8.50;99.90
19862;DHT22;10093;48.148;8.542;2023-07-31T04:06:57;8.70;99.90
19862;DHT22;10093;48.148;8.542;2023-07-31T04:09:23;8.60;99.90
19862;DHT22;10093;48.148;8.542;2023-07-31T04:11:49;8.50;99.90
19862;DHT22;10093;48.148;8.542;2023-07-31T04:14:14;8.50;99.90
19862;DHT22;10093;48.148;8.542;2023-07-31T04:16:40;8.60;99.90
19862;DHT22;10093;48.148;8.542;2023-07-31T04:19:06;8.60;99.90
19862;DHT22;10093;48.148;8.542;2023-07-31T04:21:31;8.80;99.90
19862;DHT22;10093;48.148;8.542;2023-07-31T04:23:57;8.90;99.90
19862;DHT22;10093;48.148;8.542;2023-07-31T04:26:23;9.10;99.90
19862;DHT22;10093;48.148;8.542;2023-07-31T04:28:49;9.20;99.90
19862;DHT22;10093;48.148;8.542;2023-07-31T04:31:14;9.40;99.90
19862;DHT22;10093;48.148;8.542;2023-07-31T04:33:40;9.50;99.90
19862;DHT22;10093;48.148;8.542;2023-07-31T04:36:06;9.60;99.90
19862;DHT22;10093;48.148;8.542;2023-07-31T04:38:31;9.70;99.90
19862;DHT22;10093;48.148;8.542;2023-07-31T04:40:57;9.80;99.90
19862;DHT22;10093;48.148;8.542;2023-07-31T04:43:22;10.00;99.90
19862;DHT22;10093;48.148;8.542;2023-07-31T04:45:48;10.00;99.90
19862;DHT22;10093;48.148;8.542;2023-07-31T04:48:15;10.10;99.90
19862;DHT22;10093;48.148;8.542;2023-07-31T04:50:41;10.30;99.90
19862;DHT22;10093;48.148;8.542;2023-07-31T04:53:06;10.30;99.90
19862;DHT22;10093;48.148;8.542;2023-07-31T04:55:32;10.30;99.90
19862;DHT22;10093;48.148;8.542;2023-07-31T04:57:58;10.20;99.90
19862;DHT22;10093;48.148;8.542;2023-07-31T05:00:24;10.20;99.90
19862;DHT22;10093;48.148;8.542;2023-07-31T05:02:50;10.10;99.90
19862;DHT22;10093;48.148;8.542;2023-07-31T05:05:15;10.10;99.90
19862;DHT22;10093;48.148;8.542;2023-07-31T05:07:41;10.40;99.90
19862;DHT22;10093;48.148;8.542;2023-07-31T05:10:07;10.60;99.90
19862;DHT22;10093;48.148;8.542;2023-07-31T05:12:33;10.70;99.90
19862;DHT22;10093;48.148;8.542;2023-07-31T05:14:58;10.90;99.90
19862;DHT22;10093;48.148;8.542;2023-07-31T05:17:24;11.10;99.90
19862;DHT22;10093;48.148;8.542;2023-07-31T05:19:49;11.10;99.90
19862;DHT22;10093;48.148;8.542;2023-07-31T05:22:15;11.20;99.90
19862;DHT22;10093;48.148;8.542;2023-07-31T05:24:41;11.30;99.90
19862;DHT22;10093;48.148;8.542;2023-07-31T05:27:06;11.50;99.90
19862;DHT22;10093;48.148;8.542;2023-07-31T05:29:32;11.50;99.90
19862;DHT22;10093;48.148;8.542;2023-07-31T05:31:58;11.50;99.90
19862;DHT22;10093;48.148;8.542;2023-07-31T05:34:23;11.40;99.90
19862;DHT22;10093;48.148;8.542;2023-07-31T05:36:49;11.40;99.90
19862;DHT22;10093;48.148;8.542;2023-07-31T05:39:14;11.40;99.90
19862;DHT22;10093;48.148;8.542;2023-07-31T05:41:40;11.40;99.90
19862;DHT22;10093;48.148;8.542;2023-07-31T05:44:06;11.50;99.90
19862;DHT22;10093;48.148;8.542;2023-07-31T05:46:31;11.70;99.90
19862;DHT22;10093;48.148;8.542;2023-07-31T05:48:57;11.80;99.90
19862;DHT22;10093;48.148;8.542;2023-07-31T05:51:25;12.00;99.90
19862;DHT22;10093;48.148;8.542;2023-07-31T05:53:50;12.10;99.90
19862;DHT22;10093;48.148;8.542;2023-07-31T05:56:16;12.00;99.90
19862;DHT22;10093;48.148;8.542;2023-07-31T05:58:42;12.20;99.90
19862;DHT22;10093;48.148;8.542;2023-07-31T06:01:07;12.40;99.90
19862;DHT22;10093;48.148;8.542;2023-07-31T06:03:33;12.60;99.90
19862;DHT22;10093;48.148;8.542;2023-07-31T06:05:58;12.70;99.90
19862;DHT22;10093;48.148;8.542;2023-07-31T06:08:24;12.70;99.90
19862;DHT22;10093;48.148;8.542;2023-07-31T06:10:49;12.90;99.90
19862;DHT22;10093;48.148;8.542;2023-07-31T06:13:15;12.90;99.90
19862;DHT22;10093;48.148;8.542;2023-07-31T06:15:41;13.00;99.90
19862;DHT22;10093;48.148;8.542;2023-07-31T06:18:06;13.00;99.90
19862;DHT22;10093;48.148;8.542;2023-07-31T06:20:34;13.30;99.90
19862;DHT22;10093;48.148;8.542;2023-07-31T06:22:59;13.20;99.90
19862;DHT22;10093;48.148;8.542;2023-07-31T06:25:25;13.30;99.90
19862;DHT22;10093;48.148;8.542;2023-07-31T06:27:51;13.50;99.90
19862;DHT22;10093;48.148;8.542;2023-07-31T06:30:16;14.00;99.90
19862;DHT22;10093;48.148;8.542;2023-07-31T06:32:42;14.20;99.90
19862;DHT22;10093;48.148;8.542;2023-07-31T06:35:08;14.30;99.90
19862;DHT22;10093;48.148;8.542;2023-07-31T06:37:34;14.50;99.90
19862;DHT22;10093;48.148;8.542;2023-07-31T06:39:59;14.60;99.90
19862;DHT22;10093;48.148;8.542;2023-07-31T06:42:25;14.60;99.90
19862;DHT22;10093;48.148;8.542;2023-07-31T06:44:51;15.00;99.90
19862;DHT22;10093;48.148;8.542;2023-07-31T06:47:16;15.30;99.90
19862;DHT22;10093;48.148;8.542;2023-07-31T06:49:42;15.70;99.90
19862;DHT22;10093;48.148;8.542;2023-07-31T06:52:07;16.30;99.90
19862;DHT22;10093;48.148;8.542;2023-07-31T06:54:33;18.50;99.90
19862;DHT22;10093;48.148;8.542;2023-07-31T06:56:59;20.60;99.90
19862;DHT22;10093;48.148;8.542;2023-07-31T06:59:24;21.30;99.90
19862;DHT22;10093;48.148;8.542;2023-07-31T07:01:50;20.70;99.90
19862;DHT22;10093;48.148;8.542;2023-07-31T07:04:15;20.60;99.90
19862;DHT22;10093;48.148;8.542;2023-07-31T07:06:41;19.50;99.90
19862;DHT22;10093;48.148;8.542;2023-07-31T07:09:07;18.80;99.90
19862;DHT22;10093;48.148;8.542;2023-07-31T07:11:33;18.10;99.90
19862;DHT22;10093;48.148;8.542;2023-07-31T07:13:59;17.50;99.90
19862;DHT22;10093;48.148;8.542;2023-07-31T07:16:28;17.20;99.90
19862;DHT22;10093;48.148;8.542;2023-07-31T07:18:53;16.90;99.90
19862;DHT22;10093;48.148;8.542;2023-07-31T07:21:19;16.80;99.90
19862;DHT22;10093;48.148;8.542;2023-07-31T07:23:45;17.10;99.90
19862;DHT22;10093;48.148;8.542;2023-07-31T07:26:10;17.30;99.90
19862;DHT22;10093;48.148;8.542;2023-07-31T07:28:36;17.20;99.90
19862;DHT22;10093;48.148;8.542;2023-07-31T07:31:03;17.20;99.90
19862;DHT22;10093;48.148;8.542;2023-07-31T07:33:28;17.20;99.90
19862;DHT22;10093;48.148;8.542;2023-07-31T07:35:54;17.40;99.90
19862;DHT22;10093;48.148;8.542;2023-07-31T07:38:20;17.50;99.90
19862;DHT22;10093;48.148;8.542;2023-07-31T07:40:46;17.60;99.90
19862;DHT22;10093;48.148;8.542;2023-07-31T07:43:16;17.60;99.90
19862;DHT22;10093;48.148;8.542;2023-07-31T07:45:41;17.70;99.90
19862;DHT22;10093;48.148;8.542;2023-07-31T07:48:07;17.90;99.90
19862;DHT22;10093;48.148;8.542;2023-07-31T07:50:32;18.30;99.90
19862;DHT22;10093;48.148;8.542;2023-07-31T07:52:58;18.90;99.90
19862;DHT22;10093;48.148;8.542;2023-07-31T07:55:24;20.50;99.90
19862;DHT22;10093;48.148;8.542;2023-07-31T07:57:49;21.70;99.90
19862;DHT22;10093;48.148;8.542;2023-07-31T08:00:16;22.50;99.90
19862;DHT22;10093;48.148;8.542;2023-07-31T08:02:42;23.40;99.90
19862;DHT22;10093;48.148;8.542;2023-07-31T08:05:08;23.40;99.90
19862;DHT22;10093;48.148;8.542;2023-07-31T08:07:34;24.40;99.90
19862;DHT22;10093;48.148;8.542;2023-07-31T08:10:00;25.70;99.90
19862;DHT22;10093;48.148;8.542;2023-07-31T08:12:25;26.40;99.90
19862;DHT22;10093;48.148;8.542;2023-07-31T08:14:51;25.20;99.90
19862;DHT22;10093;48.148;8.542;2023-07-31T08:17:17;25.60;99.90
19862;DHT22;10093;48.148;8.542;2023-07-31T08:19:43;27.10;99.90
19862;DHT22;10093;48.148;8.542;2023-07-31T08:22:09;28.20;99.90
19862;DHT22;10093;48.148;8.542;2023-07-31T08:24:35;25.80;99.90
19862;DHT22;10093;48.148;8.542;2023-07-31T08:27:00;24.00;99.90
19862;DHT22;10093;48.148;8.542;2023-07-31T08:29:26;23.80;99.90
19862;DHT22;10093;48.148;8.542;2023-07-31T08:31:52;24.30;99.90
19862;DHT22;10093;48.148;8.542;2023-07-31T08:34:17;25.40;99.90
19862;DHT22;10093;48.148;8.542;2023-07-31T08:36:43;25.30;99.90
19862;DHT22;10093;48.148;8.542;2023-07-31T08:39:08;25.10;99.90
19862;DHT22;10093;48.148;8.542;2023-07-31T08:41:38;23.80;99.90
19862;DHT22;10093;48.148;8.542;2023-07-31T08:44:05;24.60;99.90
19862;DHT22;10093;48.148;8.542;2023-07-31T08:46:31;24.70;99.90
19862;DHT22;10093;48.148;8.542;2023-07-31T08:48:58;23.40;99.90
19862;DHT22;10093;48.148;8.542;2023-07-31T08:51:24;24.50;99.90
19862;DHT22;10093;48.148;8.542;2023-07-31T08:53:50;25.40;99.90
19862;DHT22;10093;48.148;8.542;2023-07-31T08:56:16;25.90;99.90
19862;DHT22;10093;48.148;8.542;2023-07-31T08:58:43;25.50;99.90
19862;DHT22;10093;48.148;8.542;2023-07-31T09:01:09;26.40;99.90
19862;DHT22;10093;48.148;8.542;2023-07-31T09:03:36;25.50;99.90
19862;DHT22;10093;48.148;8.542;2023-07-31T09:06:03;25.30;99.90
19862;DHT22;10093;48.148;8.542;2023-07-31T09:08:31;25.60;99.90
19862;DHT22;10093;48.148;8.542;2023-07-31T09:11:00;24.90;99.90
19862;DHT22;10093;48.148;8.542;2023-07-31T09:13:30;24.40;99.90
19862;DHT22;10093;48.148;8.542;2023-07-31T09:15:57;25.30;99.90
19862;DHT22;10093;48.148;8.542;2023-07-31T09:18:22;26.30;99.90
19862;DHT22;10093;48.148;8.542;2023-07-31T09:21:06;26.00;99.90
19862;DHT22;10093;48.148;8.542;2023-07-31T09:23:43;26.20;99.90
19862;DHT22;10093;48.148;8.542;2023-07-31T09:26:10;27.30;99.90
19862;DHT22;10093;48.148;8.542;2023-07-31T09:28:36;26.40;99.90
19862;DHT22;10093;48.148;8.542;2023-07-31T09:31:01;25.40;99.90
19862;DHT22;10093;48.148;8.542;2023-07-31T09:33:27;24.60;99.90
19862;DHT22;10093;48.148;8.542;2023-07-31T09:35:52;23.80;99.90
19862;DHT22;10093;48.148;8.542;2023-07-31T09:38:18;22.90;99.90
19862;DHT22;10093;48.148;8.542;2023-07-31T09:40:46;22.50;99.90
19862;DHT22;10093;48.148;8.542;2023-07-31T09:43:13;22.40;99.90
19862;DHT22;10093;48.148;8.542;2023-07-31T09:45:43;22.50;99.90
19862;DHT22;10093;48.148;8.542;2023-07-31T09:48:11;22.40;99.90
19862;DHT22;10093;48.148;8.542;2023-07-31T09:50:42;22.60;99.90
19862;DHT22;10093;48.148;8.542;2023-07-31T09:53:09;22.90;99.90
19862;DHT22;10093;48.148;8.542;2023-07-31T09:55:35;23.00;99.90
19862;DHT22;10093;48.148;8.542;2023-07-31T09:58:09;23.10;99.90
19862;DHT22;10093;48.148;8.542;2023-07-31T10:00:36;24.70;99.90
19862;DHT22;10093;48.148;8.542;2023-07-31T10:03:04;26.50;99.90
19862;DHT22;10093;48.148;8.542;2023-07-31T10:05:50;27.20;99.90
19862;DHT22;10093;48.148;8.542;2023-07-31T10:08:20;26.10;99.90
19862;DHT22;10093;48.148;8.542;2023-07-31T10:10:47;25.00;99.90
19862;DHT22;10093;48.148;8.542;2023-07-31T10:13:13;24.80;99.90
19862;DHT22;10093;48.148;8.542;2023-07-31T10:15:39;24.90;99.90
19862;DHT22;10093;48.148;8.542;2023-07-31T10:18:06;26.00;99.90
19862;DHT22;10093;48.148;8.542;2023-07-31T10:20:32;26.90;99.90
19862;DHT22;10093;48.148;8.542;2023-07-31T10:22:59;27.20;99.90
19862;DHT22;10093;48.148;8.542;2023-07-31T10:25:26;28.00;99.90
19862;DHT22;10093;48.148;8.542;2023-07-31T10:27:53;28.80;99.90
19862;DHT22;10093;48.148;8.542;2023-07-31T10:30:24;28.60;99.90
19862;DHT22;10093;48.148;8.542;2023-07-31T10:32:51;28.60;99.90
19862;DHT22;10093;48.148;8.542;2023-07-31T10:35:18;28.10;99.90
19862;DHT22;10093;48.148;8.542;2023-07-31T10:37:44;27.50;99.90
19862;DHT22;10093;48.148;8.542;2023-07-31T10:40:13;26.20;99.90
19862;DHT22;10093;48.148;8.542;2023-07-31T10:42:50;26.30;99.90
19862;DHT22;10093;48.148;8.542;2023-07-31T10:45:26;25.90;99.90
19862;DHT22;10093;48.148;8.542;2023-07-31T10:48:15;26.10;99.90
19862;DHT22;10093;48.148;8.542;2023-07-31T10:50:49;25.70;99.90
19862;DHT22;10093;48.148;8.542;2023-07-31T10:53:30;25.70;99.90
19862;DHT22;10093;48.148;8.542;2023-07-31T10:56:03;26.70;99.90
19862;DHT22;10093;48.148;8.542;2023-07-31T10:58:29;27.30;99.90
19862;DHT22;10093;48.148;8.542;2023-07-31T11:00:59;28.00;99.90
19862;DHT22;10093;48.148;8.542;2023-07-31T11:03:26;28.20;99.90
19862;DHT22;10093;48.148;8.542;2023-07-31T11:08:28;29.40;99.90
19862;DHT22;10093;48.148;8.542;2023-07-31T11:13:30;28.80;99.90
19862;DHT22;10093;48.148;8.542;2023-07-31T11:15:56;29.50;99.90
19862;DHT22;10093;48.148;8.542;2023-07-31T11:18:21;29.70;99.90
19862;DHT22;10093;48.148;8.542;2023-07-31T11:20:47;29.70;99.90
19862;DHT22;10093;48.148;8.542;2023-07-31T11:23:15;29.20;99.90
19862;DHT22;10093;48.148;8.542;2023-07-31T11:25:40;27.20;99.90
19862;DHT22;10093;48.148;8.542;2023-07-31T11:28:14;26.60;99.90
19862;DHT22;10093;48.148;8.542;2023-07-31T11:30:41;26.30;99.90
19862;DHT22;10093;48.148;8.542;2023-07-31T11:33:07;25.90;99.90
19862;DHT22;10093;48.148;8.542;2023-07-31T11:35:55;26.30;99.90
19862;DHT22;10093;48.148;8.542;2023-07-31T11:38:25;26.50;99.90
19862;DHT22;10093;48.148;8.542;2023-07-31T11:40:52;26.10;99.90
19862;DHT22;10093;48.148;8.542;2023-07-31T11:43:20;26.20;99.90
19862;DHT22;10093;48.148;8.542;2023-07-31T11:45:57;28.30;99.90
19862;DHT22;10093;48.148;8.542;2023-07-31T11:48:27;28.40;99.90
19862;DHT22;10093;48.148;8.542;2023-07-31T11:51:05;27.90;99.90
19862;DHT22;10093;48.148;8.542;2023-07-31T11:53:38;27.90;99.90
19862;DHT22;10093;48.148;8.542;2023-07-31T11:56:07;28.10;99.90
19862;DHT22;10093;48.148;8.542;2023-07-31T11:58:35;28.50;99.90
19862;DHT22;10093;48.148;8.542;2023-07-31T12:01:01;28.70;99.90
19862;DHT22;10093;48.148;8.542;2023-07-31T12:03:27;28.40;99.90
19862;DHT22;10093;48.148;8.542;2023-07-31T12:05:53;28.90;99.90
19862;DHT22;10093;48.148;8.542;2023-07-31T12:08:21;29.10;99.90
19862;DHT22;10093;48.148;8.542;2023-07-31T12:10:50;28.90;99.90
19862;DHT22;10093;48.148;8.542;2023-07-31T12:13:26;27.70;99.90
19862;DHT22;10093;48.148;8.542;2023-07-31T12:15:56;27.00;99.90
19862;DHT22;10093;48.148;8.542;2023-07-31T12:18:26;26.20;99.90
19862;DHT22;10093;48.148;8.542;2023-07-31T12:21:00;25.70;99.90
19862;DHT22;10093;48.148;8.542;2023-07-31T12:23:28;25.90;99.90
19862;DHT22;10093;48.148;8.542;2023-07-31T12:26:03;26.00;99.90
19862;DHT22;10093;48.148;8.542;2023-07-31T12:28:29;26.00;99.90
19862;DHT22;10093;48.148;8.542;2023-07-31T12:30:58;27.10;99.90
19862;DHT22;10093;48.148;8.542;2023-07-31T12:33:34;28.30;99.90
19862;DHT22;10093;48.148;8.542;2023-07-31T12:36:02;27.90;99.90
19862;DHT22;10093;48.148;8.542;2023-07-31T12:38:28;26.70;99.90
19862;DHT22;10093;48.148;8.542;2023-07-31T12:40:54;25.70;99.90
19862;DHT22;10093;48.148;8.542;2023-07-31T12:43:19;25.20;99.90
19862;DHT22;10093;48.148;8.542;2023-07-31T12:45:45;25.00;99.90
19862;DHT22;10093;48.148;8.542;2023-07-31T12:48:13;25.10;99.90
19862;DHT22;10093;48.148;8.542;2023-07-31T12:50:38;25.00;99.90
19862;DHT22;10093;48.148;8.542;2023-07-31T12:53:04;24.40;99.90
19862;DHT22;10093;48.148;8.542;2023-07-31T12:55:30;23.70;99.90
19862;DHT22;10093;48.148;8.542;2023-07-31T12:57:56;23.50;99.90
19862;DHT22;10093;48.148;8.542;2023-07-31T13:00:22;23.80;99.90
19862;DHT22;10093;48.148;8.542;2023-07-31T13:02:48;24.40;99.90
19862;DHT22;10093;48.148;8.542;2023-07-31T13:05:14;25.10;99.90
19862;DHT22;10093;48.148;8.542;2023-07-31T13:07:40;25.50;99.90
19862;DHT22;10093;48.148;8.542;2023-07-31T13:10:07;25.90;99.90
19862;DHT22;10093;48.148;8.542;2023-07-31T13:12:32;26.30;99.90
19862;DHT22;10093;48.148;8.542;2023-07-31T13:14:58;27.10;99.90
19862;DHT22;10093;48.148;8.542;2023-07-31T13:17:24;27.20;99.90
19862;DHT22;10093;48.148;8.542;2023-07-31T13:19:49;26.60;99.90
19862;DHT22;10093;48.148;8.542;2023-07-31T13:22:15;26.10;99.90
19862;DHT22;10093;48.148;8.542;2023-07-31T13:24:41;26.20;99.90
19862;DHT22;10093;48.148;8.542;2023-07-31T13:27:07;26.50;99.90
19862;DHT22;10093;48.148;8.542;2023-07-31T13:29:33;27.20;99.90
19862;DHT22;10093;48.148;8.542;2023-07-31T13:31:58;27.30;99.90
19862;DHT22;10093;48.148;8.542;2023-07-31T13:34:24;28.10;99.90
19862;DHT22;10093;48.148;8.542;2023-07-31T13:36:49;28.20;99.90
19862;DHT22;10093;48.148;8.542;2023-07-31T13:39:15;28.60;99.90
19862;DHT22;10093;48.148;8.542;2023-07-31T13:41:41;29.10;99.90
19862;DHT22;10093;48.148;8.542;2023-07-31T13:44:07;29.80;99.90
19862;DHT22;10093;48.148;8.542;2023-07-31T13:46:32;30.40;99.90
19862;DHT22;10093;48.148;8.542;2023-07-31T13:48:59;30.00;99.90
19862;DHT22;10093;48.148;8.542;2023-07-31T13:51:25;29.80;99.90
19862;DHT22;10093;48.148;8.542;2023-07-31T13:53:51;29.10;99.90
19862;DHT22;10093;48.148;8.542;2023-07-31T13:56:16;28.10;99.90
19862;DHT22;10093;48.148;8.542;2023-07-31T13:58:42;27.10;99.90
19862;DHT22;10093;48.148;8.542;2023-07-31T14:01:08;26.50;99.90
19862;DHT22;10093;48.148;8.542;2023-07-31T14:03:34;25.90;99.90
19862;DHT22;10093;48.148;8.542;2023-07-31T14:05:59;25.90;99.90
19862;DHT22;10093;48.148;8.542;2023-07-31T14:08:25;25.50;99.90
19862;DHT22;10093;48.148;8.542;2023-07-31T14:10:51;25.50;99.90
19862;DHT22;10093;48.148;8.542;2023-07-31T14:13:16;25.80;99.90
19862;DHT22;10093;48.148;8.542;2023-07-31T14:15:42;26.30;99.90
19862;DHT22;10093;48.148;8.542;2023-07-31T14:18:10;26.50;99.90
19862;DHT22;10093;48.148;8.542;2023-07-31T14:20:36;27.30;99.90
19862;DHT22;10093;48.148;8.542;2023-07-31T14:23:04;27.50;99.90
19862;DHT22;10093;48.148;8.542;2023-07-31T14:25:30;26.90;99.90
19862;DHT22;10093;48.148;8.542;2023-07-31T14:27:56;25.90;99.90
19862;DHT22;10093;48.148;8.542;2023-07-31T14:30:21;25.20;99.90
19862;DHT22;10093;48.148;8.542;2023-07-31T14:32:47;25.10;99.90
19862;DHT22;10093;48.148;8.542;2023-07-31T14:35:13;25.20;99.90
19862;DHT22;10093;48.148;8.542;2023-07-31T14:37:40;25.30;99.90
19862;DHT22;10093;48.148;8.542;2023-07-31T14:40:08;25.00;99.90
19862;DHT22;10093;48.148;8.542;2023-07-31T14:42:34;24.90;99.90
19862;DHT22;10093;48.148;8.542;2023-07-31T14:45:00;25.00;99.90
19862;DHT22;10093;48.148;8.542;2023-07-31T14:47:25;25.20;99.90
19862;DHT22;10093;48.148;8.542;2023-07-31T14:49:51;25.20;99.90
19862;DHT22;10093;48.148;8.542;2023-07-31T14:52:17;25.00;99.90
19862;DHT22;10093;48.148;8.542;2023-07-31T14:54:42;24.60;99.90
19862;DHT22;10093;48.148;8.542;2023-07-31T14:57:08;24.50;99.90
19862;DHT22;10093;48.148;8.542;2023-07-31T14:59:34;24.30;99.90
19862;DHT22;10093;48.148;8.542;2023-07-31T15:01:59;24.10;99.90
19862;DHT22;10093;48.148;8.542;2023-07-31T15:04:25;23.60;99.90
19862;DHT22;10093;48.148;8.542;2023-07-31T15:06:52;23.70;99.90
19862;DHT22;10093;48.148;8.542;2023-07-31T15:09:17;23.90;99.90
19862;DHT22;10093;48.148;8.542;2023-07-31T15:11:43;23.80;99.90
19862;DHT22;10093;48.148;8.542;2023-07-31T15:14:09;23.80;99.90
19862;DHT22;10093;48.148;8.542;2023-07-31T15:16:34;23.90;99.90
19862;DHT22;10093;48.148;8.542;2023-07-31T15:19:00;24.00;99.90
19862;DHT22;10093;48.148;8.542;2023-07-31T15:21:26;23.90;99.90
19862;DHT22;10093;48.148;8.542;2023-07-31T15:23:52;23.90;99.90
19862;DHT22;10093;48.148;8.542;2023-07-31T15:26:17;23.90;99.90
19862;DHT22;10093;48.148;8.542;2023-07-31T15:28:49;23.60;99.90
19862;DHT22;10093;48.148;8.542;2023-07-31T15:31:14;23.30;99.90
19862;DHT22;10093;48.148;8.542;2023-07-31T15:33:40;23.10;99.90
19862;DHT22;10093;48.148;8.542;2023-07-31T15:36:05;23.10;99.90
19862;DHT22;10093;48.148;8.542;2023-07-31T15:38:32;23.00;99.90
19862;DHT22;10093;48.148;8.542;2023-07-31T15:40:57;23.00;99.90
19862;DHT22;10093;48.148;8.542;2023-07-31T15:43:23;23.00;99.90